Time;durP1;ratioP1;P1;durP2;ratioP2;P2;SDS_P1;SDS_P2;PMS_P1;PMS_P2;Temp;Humidity;BMP_temperature;BMP_pressure;BME280_temperature;BME280_humidity;BME280_pressure;Samples;Min_cycle;Max_cycle;Signal;HPM_P1;HPM_P2
2023/09/28 00:01:35;;;;;;;9.00;5.60;;;17.60;1.00;;;;;;5044095;28;20507;-75
2023/09/28 00:04:02;;;;;;;7.85;5.70;;;17.50;1.00;;;;;;5029348;28;20442;-75
2023/09/28 00:06:28;;;;;;;6.90;5.55;;;17.50;1.00;;;;;;5031977;28;20119;-75
2023/09/28 00:08:55;;;;;;;8.52;5.50;;;17.50;1.00;;;;;;5031864;28;20598;-75
2023/09/28 00:11:21;;;;;;;8.05;6.45;;;17.50;1.00;;;;;;5049897;28;20458;-75
2023/09/28 00:13:46;;;;;;;6.32;5.05;;;17.50;1.00;;;;;;5049064;28;20037;-75
2023/09/28 00:16:12;;;;;;;8.45;5.82;;;17.50;1.00;;;;;;5045135;28;20056;-75
2023/09/28 00:18:38;;;;;;;8.73;5.13;;;17.50;1.00;;;;;;5043516;28;20203;-75
2023/09/28 00:21:04;;;;;;;8.00;6.00;;;17.50;1.00;;;;;;5044415;28;20041;-76
2023/09/28 00:23:31;;;;;;;7.40;5.45;;;17.50;1.00;;;;;;5064426;28;20037;-75
2023/09/28 00:25:57;;;;;;;7.03;5.70;;;17.50;1.00;;;;;;5030215;28;20095;-76
2023/09/28 00:28:23;;;;;;;5.95;5.18;;;17.50;1.00;;;;;;5045616;28;20041;-75
2023/09/28 00:30:48;;;;;;;7.60;5.50;;;17.50;1.00;;;;;;5028317;28;21170;-75
2023/09/28 00:33:14;;;;;;;8.93;5.47;;;17.50;1.00;;;;;;5038526;28;20087;-75
2023/09/28 00:35:40;;;;;;;7.00;5.22;;;17.50;1.00;;;;;;5029203;28;20163;-75
2023/09/28 00:38:06;;;;;;;9.73;5.47;;;17.50;1.00;;;;;;5045894;28;20713;-75
2023/09/28 00:40:32;;;;;;;6.85;5.22;;;17.50;1.00;;;;;;5046015;28;20045;-75
2023/09/28 00:42:59;;;;;;;7.47;5.55;;;17.60;1.00;;;;;;5024364;28;20051;-76
2023/09/28 00:45:27;;;;;;;6.32;4.82;;;17.60;99.90;;;;;;5044522;28;20033;-75
2023/09/28 00:48:00;;;;;;;6.78;5.10;;;17.60;99.90;;;;;;5046681;28;20407;-75
2023/09/28 00:50:27;;;;;;;8.70;5.82;;;17.70;99.90;;;;;;5061944;28;20118;-75
2023/09/28 00:53:00;;;;;;;7.10;5.07;;;17.70;99.90;;;;;;5044295;28;20037;-76
2023/09/28 00:55:29;;;;;;;6.75;5.45;;;17.80;99.90;;;;;;5048726;28;20037;-76
2023/09/28 00:58:00;;;;;;;6.53;5.18;;;17.80;99.90;;;;;;5029145;28;20064;-76
2023/09/28 01:00:28;;;;;;;7.13;5.00;;;17.80;99.90;;;;;;5043679;28;20123;-77
2023/09/28 01:02:56;;;;;;;7.15;4.95;;;17.80;99.90;;;;;;5046249;28;20041;-75
2023/09/28 01:05:38;;;;;;;7.28;4.80;;;17.80;99.90;;;;;;5043483;28;20044;-75
2023/09/28 01:08:18;;;;;;;8.73;5.07;;;17.80;99.90;;;;;;5041128;28;20033;-75
2023/09/28 01:10:45;;;;;;;6.00;4.97;;;17.80;99.90;;;;;;5041625;28;21586;-75
2023/09/28 01:13:12;;;;;;;10.95;5.35;;;17.80;99.90;;;;;;5029995;28;20048;-75
2023/09/28 01:15:39;;;;;;;7.13;4.82;;;17.80;99.90;;;;;;5043740;28;20041;-76
2023/09/28 01:18:12;;;;;;;6.45;5.00;;;17.80;99.90;;;;;;5030112;28;20039;-76
2023/09/28 01:20:43;;;;;;;6.18;4.95;;;17.80;99.90;;;;;;5047591;28;20113;-75
2023/09/28 01:23:10;;;;;;;5.68;4.45;;;17.80;99.90;;;;;;5043784;28;20044;-76
2023/09/28 01:25:37;;;;;;;6.53;4.95;;;17.70;99.90;;;;;;5030771;28;20190;-76
2023/09/28 01:28:03;;;;;;;8.65;5.00;;;17.70;99.90;;;;;;5048073;28;20110;-75
2023/09/28 01:30:29;;;;;;;6.03;4.75;;;17.80;99.90;;;;;;5025578;28;20069;-76
2023/09/28 01:32:55;;;;;;;8.50;5.35;;;17.80;99.90;;;;;;5035155;28;20554;-76
2023/09/28 01:35:21;;;;;;;7.20;4.70;;;17.80;99.90;;;;;;5029568;28;20034;-76
2023/09/28 01:38:13;;;;;;;6.43;4.47;;;17.70;99.90;;;;;;5041331;28;20041;-76
2023/09/28 01:40:40;;;;;;;6.95;5.10;;;17.70;99.90;;;;;;5027699;28;20403;-76
2023/09/28 01:43:07;;;;;;;6.47;4.55;;;17.60;99.90;;;;;;5046349;28;20037;-76
2023/09/28 01:45:33;;;;;;;7.68;4.65;;;17.50;99.90;;;;;;5032047;28;20714;-77
2023/09/28 01:47:59;;;;;;;7.35;4.50;;;17.50;99.90;;;;;;5054129;28;20066;-76
2023/09/28 01:50:25;;;;;;;5.75;4.43;;;17.50;99.90;;;;;;5029443;28;20051;-76
2023/09/28 01:52:51;;;;;;;7.43;5.00;;;17.40;99.90;;;;;;5044897;28;20045;-76
2023/09/28 01:55:17;;;;;;;6.13;4.88;;;17.30;99.90;;;;;;5030109;28;20120;-76
2023/09/28 01:57:43;;;;;;;7.00;4.28;;;17.30;99.90;;;;;;5042158;28;20103;-76
2023/09/28 02:00:18;;;;;;;6.07;4.40;;;17.30;99.90;;;;;;5028895;28;20037;-76
2023/09/28 02:02:44;;;;;;;7.50;4.77;;;17.20;99.90;;;;;;5043419;28;20132;-76
2023/09/28 02:05:13;;;;;;;5.82;4.70;;;17.20;99.90;;;;;;5051852;28;20064;-76
2023/09/28 02:07:39;;;;;;;7.32;4.65;;;17.20;99.90;;;;;;5061568;28;20041;-75
2023/09/28 02:10:06;;;;;;;7.32;4.10;;;17.10;99.90;;;;;;5040657;28;20041;-76
2023/09/28 02:12:32;;;;;;;7.65;4.70;;;17.00;99.90;;;;;;5053216;28;20044;-75
2023/09/28 02:15:01;;;;;;;5.50;4.20;;;17.00;99.90;;;;;;5030783;28;20037;-76
2023/09/28 02:17:30;;;;;;;5.63;4.68;;;17.00;99.90;;;;;;5022673;28;20102;-76
2023/09/28 02:19:56;;;;;;;5.25;4.00;;;17.00;99.90;;;;;;5054104;28;20176;-76
2023/09/28 02:22:22;;;;;;;4.25;3.50;;;16.90;99.90;;;;;;5044562;28;20597;-77
2023/09/28 02:24:50;;;;;;;4.95;4.05;;;16.90;99.90;;;;;;5038013;28;20045;-76
2023/09/28 02:27:19;;;;;;;5.55;4.20;;;16.80;99.90;;;;;;5025901;28;20044;-76
2023/09/28 02:29:46;;;;;;;6.43;3.78;;;16.70;99.90;;;;;;5025733;28;20040;-76
2023/09/28 02:32:15;;;;;;;4.40;3.90;;;16.70;99.90;;;;;;5037377;28;20038;-76
2023/09/28 02:34:41;;;;;;;4.70;3.80;;;16.70;99.90;;;;;;5038715;28;20075;-76
2023/09/28 02:37:07;;;;;;;6.13;4.20;;;16.70;99.90;;;;;;5046359;28;20395;-76
2023/09/28 02:39:36;;;;;;;8.50;4.00;;;16.60;99.90;;;;;;5044597;28;20051;-76
2023/09/28 02:42:07;;;;;;;6.13;4.32;;;16.60;99.90;;;;;;5045035;28;20071;-75
2023/09/28 02:44:36;;;;;;;5.97;4.20;;;16.50;1.00;;;;;;5034381;28;20040;-75
2023/09/28 02:47:05;;;;;;;6.95;4.40;;;16.50;1.00;;;;;;5026118;28;20045;-75
2023/09/28 02:49:34;;;;;;;7.38;4.22;;;16.40;1.00;;;;;;5045393;28;20041;-76
2023/09/28 02:52:02;;;;;;;8.30;4.07;;;16.30;1.00;;;;;;5037320;28;20068;-76
2023/09/28 02:54:29;;;;;;;7.55;4.68;;;16.30;1.00;;;;;;5045059;28;20061;-76
2023/09/28 02:56:55;;;;;;;6.75;4.30;;;16.20;1.00;;;;;;5035514;28;20038;-77
2023/09/28 02:59:24;;;;;;;5.93;4.18;;;16.20;1.00;;;;;;5034835;28;20036;-76
2023/09/28 03:01:51;;;;;;;6.82;5.50;;;16.10;1.00;;;;;;5025355;28;20040;-75
2023/09/28 03:04:17;;;;;;;6.22;4.53;;;16.10;1.00;;;;;;5046495;28;20037;-76
2023/09/28 03:06:45;;;;;;;6.22;4.60;;;16.00;1.00;;;;;;5041387;28;20475;-76
2023/09/28 03:09:12;;;;;;;6.93;4.45;;;16.00;1.00;;;;;;5055711;28;20034;-76
2023/09/28 03:11:42;;;;;;;7.60;4.75;;;16.00;1.00;;;;;;5026404;28;20039;-75
2023/09/28 03:14:08;;;;;;;6.53;4.43;;;16.00;1.00;;;;;;5051480;28;20041;-76
2023/09/28 03:16:34;;;;;;;6.53;4.55;;;16.00;9.40;;;;;;5051046;28;20063;-75
2023/09/28 03:19:00;;;;;;;6.72;4.03;;;15.90;14.80;;;;;;5037305;28;20487;-76
2023/09/28 03:21:30;;;;;;;7.88;4.93;;;15.90;28.40;;;;;;5026804;28;20043;-76
2023/09/28 03:23:59;;;;;;;8.40;4.72;;;15.90;66.60;;;;;;5026291;28;20033;-76
2023/09/28 03:26:26;;;;;;;6.78;4.75;;;15.90;69.50;;;;;;5035720;28;20045;-75
2023/09/28 03:28:53;;;;;;;7.88;4.95;;;15.90;99.90;;;;;;5029681;28;20041;-76
2023/09/28 03:31:18;;;;;;;6.40;5.00;;;15.90;99.90;;;;;;5045639;28;20045;-75
2023/09/28 03:33:44;;;;;;;6.53;4.95;;;15.90;99.90;;;;;;5026960;28;20131;-75
2023/09/28 03:36:12;;;;;;;8.75;5.43;;;16.00;99.90;;;;;;5048794;28;20120;-76
2023/09/28 03:38:38;;;;;;;8.70;5.53;;;16.00;99.90;;;;;;5047046;28;20037;-76
2023/09/28 03:41:06;;;;;;;9.48;5.43;;;16.00;99.90;;;;;;5046206;28;20035;-75
2023/09/28 03:43:31;;;;;;;7.32;5.20;;;15.90;99.90;;;;;;5047603;28;20052;-75
2023/09/28 03:45:57;;;;;;;7.82;5.70;;;15.90;99.90;;;;;;5042293;28;20037;-75
2023/09/28 03:48:23;;;;;;;8.02;5.28;;;16.00;99.90;;;;;;5033422;28;20484;-75
2023/09/28 03:50:49;;;;;;;8.45;5.60;;;16.00;99.90;;;;;;5045055;28;20132;-75
2023/09/28 03:53:15;;;;;;;7.93;5.97;;;16.00;99.90;;;;;;5029665;28;20049;-76
2023/09/28 03:55:40;;;;;;;7.50;5.50;;;16.00;99.90;;;;;;5043585;28;20467;-76
2023/09/28 03:58:06;;;;;;;10.32;5.38;;;15.90;99.90;;;;;;5034614;28;20123;-75
2023/09/28 04:00:32;;;;;;;7.72;5.30;;;15.90;99.90;;;;;;5034201;28;20068;-76
2023/09/28 04:02:57;;;;;;;8.60;5.95;;;15.90;99.90;;;;;;5048191;28;20037;-76
2023/09/28 04:05:23;;;;;;;7.38;5.60;;;15.80;99.90;;;;;;5056637;28;20048;-76
2023/09/28 04:07:50;;;;;;;6.93;5.53;;;15.80;99.90;;;;;;5045762;28;20041;-77
2023/09/28 04:10:16;;;;;;;10.90;5.50;;;15.80;99.90;;;;;;5028979;28;20494;-74
2023/09/28 04:12:42;;;;;;;9.18;6.10;;;15.80;99.90;;;;;;5039908;28;20434;-75
2023/09/28 04:15:09;;;;;;;7.60;5.43;;;15.80;99.90;;;;;;5043654;28;20102;-75
2023/09/28 04:17:36;;;;;;;7.97;5.30;;;15.80;99.90;;;;;;5034666;28;20095;-75
2023/09/28 04:20:06;;;;;;;7.82;5.60;;;15.70;99.90;;;;;;5041280;28;20384;-74
2023/09/28 04:22:32;;;;;;;7.15;5.10;;;15.70;99.90;;;;;;5032010;28;20056;-75
2023/09/28 04:24:58;;;;;;;8.00;5.38;;;15.70;99.90;;;;;;5040420;28;20395;-75
2023/09/28 04:27:24;;;;;;;7.45;5.07;;;15.70;99.90;;;;;;5037346;28;20041;-75
2023/09/28 04:29:50;;;;;;;8.35;5.57;;;15.60;99.90;;;;;;5044842;28;20047;-75
2023/09/28 04:32:15;;;;;;;8.55;5.43;;;15.60;99.90;;;;;;5027892;28;20072;-75
2023/09/28 04:34:41;;;;;;;6.78;5.20;;;15.50;99.90;;;;;;5039293;28;20530;-76
2023/09/28 04:37:07;;;;;;;7.57;5.35;;;15.50;99.90;;;;;;5025994;28;20040;-75
2023/09/28 04:39:34;;;;;;;7.28;5.32;;;15.40;99.90;;;;;;5030372;28;20107;-76
2023/09/28 04:41:59;;;;;;;8.70;5.60;;;15.40;99.90;;;;;;5030873;28;20462;-76
2023/09/28 04:44:25;;;;;;;9.40;5.30;;;15.30;99.90;;;;;;5026140;28;20037;-75
2023/09/28 04:46:51;;;;;;;8.57;6.05;;;15.20;99.90;;;;;;5047980;28;20619;-76
2023/09/28 04:49:18;;;;;;;5.88;5.05;;;15.10;1.00;;;;;;5042110;28;20128;-76
2023/09/28 04:51:44;;;;;;;8.07;5.68;;;15.10;1.00;;;;;;5032131;28;20077;-76
2023/09/28 04:54:10;;;;;;;8.52;5.47;;;15.10;1.00;;;;;;5046001;28;20045;-75
2023/09/28 04:56:35;;;;;;;6.20;5.20;;;15.10;1.00;;;;;;5046696;28;20090;-75
2023/09/28 04:59:03;;;;;;;9.30;5.47;;;15.00;1.00;;;;;;5060119;28;20090;-75
2023/09/28 05:01:30;;;;;;;6.78;5.05;;;15.00;1.00;;;;;;5038169;28;20037;-75
2023/09/28 05:03:56;;;;;;;7.00;5.13;;;15.00;1.00;;;;;;5042040;28;20041;-75
2023/09/28 05:06:22;;;;;;;7.25;5.47;;;15.00;1.00;;;;;;5028935;28;20079;-75
2023/09/28 05:08:49;;;;;;;7.85;5.75;;;15.00;1.00;;;;;;5032163;28;20068;-75
2023/09/28 05:11:15;;;;;;;9.48;5.60;;;15.00;1.00;;;;;;5047632;28;20412;-74
2023/09/28 05:13:42;;;;;;;10.02;5.68;;;15.00;1.00;;;;;;5028216;28;20024;-75
2023/09/28 05:16:07;;;;;;;10.20;5.93;;;15.00;1.00;;;;;;5033377;28;20116;-76
2023/09/28 05:18:35;;;;;;;7.40;5.65;;;15.00;1.00;;;;;;5030651;28;20116;-75
2023/09/28 05:21:01;;;;;;;7.72;5.65;;;15.10;1.00;;;;;;5050913;28;20048;-75
2023/09/28 05:23:26;;;;;;;10.90;5.80;;;15.00;1.00;;;;;;5039223;28;20044;-75
2023/09/28 05:25:52;;;;;;;11.18;5.93;;;15.10;1.00;;;;;;5035619;28;20040;-75
2023/09/28 05:28:18;;;;;;;10.25;6.20;;;15.10;1.00;;;;;;5039592;28;20087;-75
2023/09/28 05:30:43;;;;;;;9.32;5.68;;;15.10;1.00;;;;;;5026789;28;20037;-75
2023/09/28 05:33:09;;;;;;;11.05;5.95;;;15.10;1.00;;;;;;5040636;28;20538;-75
2023/09/28 05:35:34;;;;;;;9.10;5.20;;;15.00;1.00;;;;;;5040152;28;20045;-75
2023/09/28 05:38:00;;;;;;;8.38;5.10;;;15.00;1.00;;;;;;5050139;28;20068;-75
2023/09/28 05:40:26;;;;;;;7.22;5.32;;;15.00;1.00;;;;;;5030868;28;20045;-75
2023/09/28 05:42:51;;;;;;;9.57;5.13;;;15.10;1.00;;;;;;5029591;28;20045;-75
2023/09/28 05:45:17;;;;;;;8.88;5.32;;;15.10;1.00;;;;;;5047049;28;20043;-75
2023/09/28 05:47:43;;;;;;;11.85;5.13;;;15.10;1.00;;;;;;5037351;28;20072;-75
2023/09/28 05:50:10;;;;;;;7.50;5.55;;;15.10;1.00;;;;;;5040101;28;20126;-76
2023/09/28 05:52:36;;;;;;;10.48;5.60;;;15.20;1.00;;;;;;5042933;28;20042;-75
2023/09/28 05:55:02;;;;;;;11.65;4.72;;;15.10;1.00;;;;;;5043203;28;20040;-75
2023/09/28 05:57:28;;;;;;;8.73;5.18;;;15.20;1.00;;;;;;5027831;28;20037;-76
2023/09/28 05:59:54;;;;;;;7.18;4.65;;;15.20;1.00;;;;;;5030917;28;20033;-75
2023/09/28 06:02:20;;;;;;;10.32;5.88;;;15.20;1.00;;;;;;5025400;28;20048;-76
2023/09/28 06:04:46;;;;;;;8.55;5.22;;;15.20;1.00;;;;;;5025330;28;20037;-76
2023/09/28 06:07:12;;;;;;;7.20;4.47;;;15.20;1.00;;;;;;5035275;28;20067;-75
2023/09/28 06:09:38;;;;;;;8.43;5.30;;;15.20;1.00;;;;;;5056309;28;20491;-76
2023/09/28 06:12:04;;;;;;;7.70;5.28;;;15.20;1.00;;;;;;5040560;28;20060;-77
2023/09/28 06:14:29;;;;;;;7.70;4.70;;;15.20;1.00;;;;;;5044443;28;20086;-76
2023/09/28 06:16:56;;;;;;;7.78;5.45;;;15.20;1.00;;;;;;5043892;28;20041;-77
2023/09/28 06:19:22;;;;;;;7.50;5.35;;;15.20;1.00;;;;;;5044262;28;20048;-79
2023/09/28 06:21:47;;;;;;;8.50;5.68;;;15.30;1.00;;;;;;5061236;28;20148;-79
2023/09/28 06:24:13;;;;;;;8.90;5.35;;;15.30;1.00;;;;;;5044734;28;20025;-77
2023/09/28 06:26:39;;;;;;;8.15;4.22;;;15.30;1.00;;;;;;5038797;28;20033;-77
2023/09/28 06:29:05;;;;;;;7.53;4.50;;;15.40;1.00;;;;;;5022688;28;20040;-78
2023/09/28 06:31:30;;;;;;;8.00;4.72;;;15.50;1.00;;;;;;5025032;28;20106;-77
2023/09/28 06:33:56;;;;;;;9.27;4.38;;;15.40;1.00;;;;;;5024944;28;20158;-78
2023/09/28 06:36:24;;;;;;;7.97;4.45;;;15.40;1.00;;;;;;5040069;28;20128;-78
2023/09/28 06:38:50;;;;;;;11.77;4.70;;;15.50;1.00;;;;;;5061895;28;20700;-79
2023/09/28 06:41:16;;;;;;;8.10;3.70;;;15.60;1.00;;;;;;5035236;28;20040;-78
2023/09/28 06:43:41;;;;;;;8.90;4.20;;;15.60;1.00;;;;;;5044055;28;20052;-78
2023/09/28 06:46:08;;;;;;;8.43;3.88;;;15.70;1.00;;;;;;5040591;28;20041;-78
2023/09/28 06:48:34;;;;;;;11.25;4.45;;;15.80;1.00;;;;;;5046726;28;20041;-78
2023/09/28 06:51:00;;;;;;;14.05;4.00;;;15.80;1.00;;;;;;5041726;28;20049;-78
2023/09/28 06:53:26;;;;;;;8.90;3.53;;;15.90;1.00;;;;;;5034953;28;20571;-77
2023/09/28 06:55:53;;;;;;;6.78;3.45;;;15.90;1.00;;;;;;5044474;28;20037;-78
2023/09/28 06:58:19;;;;;;;14.40;3.50;;;15.90;1.00;;;;;;5043561;28;20044;-78
2023/09/28 07:00:45;;;;;;;10.57;3.22;;;15.90;1.00;;;;;;5044369;28;20036;-78
2023/09/28 07:03:12;;;;;;;10.68;3.25;;;15.90;1.00;;;;;;5034967;28;20438;-77
2023/09/28 07:05:38;;;;;;;14.18;2.97;;;15.90;1.00;;;;;;5045062;28;20047;-78
2023/09/28 07:08:05;;;;;;;11.35;3.22;;;16.00;1.00;;;;;;5030568;28;20033;-78
2023/09/28 07:10:35;;;;;;;14.00;2.88;;;16.10;1.00;;;;;;5044271;28;20652;-78
2023/09/28 07:13:04;;;;;;;16.58;3.15;;;16.10;1.00;;;;;;5027780;28;20744;-80
2023/09/28 07:15:30;;;;;;;13.43;2.95;;;16.10;1.00;;;;;;5051164;28;20402;-80
2023/09/28 07:17:56;;;;;;;15.20;2.90;;;16.10;1.00;;;;;;5031358;28;20037;-79
2023/09/28 07:20:22;;;;;;;14.88;2.50;;;16.10;1.00;;;;;;5049068;28;20076;-80
2023/09/28 07:22:48;;;;;;;10.32;3.20;;;16.10;1.00;;;;;;5029954;28;20048;-80
2023/09/28 07:25:14;;;;;;;14.07;3.17;;;16.20;1.00;;;;;;5040772;28;20033;-78
2023/09/28 07:27:42;;;;;;;15.70;3.58;;;16.20;1.00;;;;;;5042547;28;20041;-79
2023/09/28 07:30:09;;;;;;;17.17;3.03;;;16.30;1.00;;;;;;5027069;28;20043;-77
2023/09/28 07:32:35;;;;;;;16.58;2.72;;;16.30;1.00;;;;;;5028225;28;20045;-79
2023/09/28 07:35:02;;;;;;;9.23;2.45;;;16.30;1.00;;;;;;5041077;28;20040;-79
2023/09/28 07:37:28;;;;;;;13.95;2.40;;;16.40;1.00;;;;;;5034842;28;20091;-79
2023/09/28 07:39:54;;;;;;;9.35;2.50;;;16.50;1.00;;;;;;5027226;28;20041;-79
2023/09/28 07:42:20;;;;;;;17.17;3.40;;;16.50;1.00;;;;;;5022107;28;20143;-79
2023/09/28 07:44:47;;;;;;;11.90;2.97;;;16.60;1.00;;;;;;5030457;28;20119;-79
2023/09/28 07:47:13;;;;;;;9.48;2.67;;;16.60;99.90;;;;;;5035906;28;20515;-78
2023/09/28 07:49:40;;;;;;;15.70;3.65;;;16.70;99.90;;;;;;5041369;28;20038;-80
2023/09/28 07:52:08;;;;;;;15.20;2.70;;;16.70;99.90;;;;;;5037176;28;20053;-78
2023/09/28 07:54:35;;;;;;;17.45;2.97;;;16.80;99.90;;;;;;5047642;28;21140;-78
2023/09/28 07:57:05;;;;;;;12.68;2.90;;;16.90;99.90;;;;;;5038130;28;20038;-77
2023/09/28 07:59:31;;;;;;;15.75;3.05;;;17.00;99.90;;;;;;5042069;28;20491;-78
2023/09/28 08:02:00;;;;;;;17.58;2.78;;;17.00;99.90;;;;;;5042280;28;20064;-78
2023/09/28 08:04:26;;;;;;;16.95;3.88;;;17.10;99.90;;;;;;5032827;28;20128;-78
2023/09/28 08:06:52;;;;;;;13.30;2.65;;;17.20;99.90;;;;;;5033738;28;20115;-78
2023/09/28 08:09:19;;;;;;;16.52;3.10;;;17.30;99.90;;;;;;5028017;28;20037;-78
2023/09/28 08:11:48;;;;;;;10.93;2.20;;;17.30;99.90;;;;;;5043215;28;20037;-78
2023/09/28 08:14:15;;;;;;;19.08;2.88;;;17.50;99.90;;;;;;5026676;28;20072;-78
2023/09/28 08:16:45;;;;;;;10.68;2.50;;;17.50;99.90;;;;;;5031745;28;20034;-78
2023/09/28 08:19:12;;;;;;;16.60;2.67;;;17.60;99.90;;;;;;5031361;28;20045;-78
2023/09/28 08:21:41;;;;;;;15.90;2.35;;;17.70;99.90;;;;;;5044667;28;20080;-78
2023/09/28 08:24:08;;;;;;;12.55;2.75;;;17.80;44.10;;;;;;5037222;28;20095;-78
2023/09/28 08:26:35;;;;;;;14.65;2.65;;;17.90;20.50;;;;;;5031275;28;20055;-78
2023/09/28 08:29:01;;;;;;;11.32;2.53;;;18.00;1.00;;;;;;5049654;28;20151;-77
2023/09/28 08:31:27;;;;;;;14.68;2.83;;;18.00;1.00;;;;;;5042736;28;20060;-78
2023/09/28 08:33:53;;;;;;;10.98;2.17;;;18.10;1.00;;;;;;5042998;28;20047;-78
2023/09/28 08:36:21;;;;;;;12.07;2.50;;;18.20;1.00;;;;;;5042734;28;20125;-78
2023/09/28 08:38:48;;;;;;;20.52;2.47;;;18.20;1.00;;;;;;5061661;28;20048;-78
2023/09/28 08:41:18;;;;;;;14.18;2.33;;;18.30;1.00;;;;;;5032051;28;20068;-78
2023/09/28 08:43:49;;;;;;;15.30;2.60;;;18.30;1.00;;;;;;5033480;28;20044;-78
2023/09/28 08:46:15;;;;;;;18.92;3.50;;;18.50;1.00;;;;;;5043328;28;20040;-78
2023/09/28 08:48:47;;;;;;;13.90;2.92;;;18.80;1.00;;;;;;5027610;28;20063;-78
2023/09/28 08:51:15;;;;;;;15.85;2.75;;;18.90;99.90;;;;;;5043961;28;20522;-78
2023/09/28 08:53:41;;;;;;;13.82;3.70;;;19.10;99.90;;;;;;5062640;28;20041;-78
2023/09/28 08:56:10;;;;;;;15.60;3.20;;;19.30;99.90;;;;;;5043867;28;20106;-78
2023/09/28 08:58:41;;;;;;;12.48;2.17;;;19.50;99.90;;;;;;5045012;28;20041;-78
2023/09/28 09:01:07;;;;;;;15.48;2.83;;;19.80;99.90;;;;;;5039520;28;20033;-78
2023/09/28 09:03:33;;;;;;;15.88;2.70;;;20.10;99.90;;;;;;5047007;28;20049;-78
2023/09/28 09:05:59;;;;;;;13.82;3.15;;;20.30;99.90;;;;;;5018506;28;20041;-78
2023/09/28 09:08:27;;;;;;;19.05;3.92;;;20.40;99.90;;;;;;5029626;28;20094;-78
2023/09/28 09:10:54;;;;;;;12.50;2.53;;;20.40;99.90;;;;;;5029212;28;20056;-78
2023/09/28 09:13:21;;;;;;;12.13;3.00;;;20.30;99.90;;;;;;5041230;28;20132;-78
2023/09/28 09:15:47;;;;;;;15.88;2.80;;;20.30;99.90;;;;;;5030389;28;20036;-79
2023/09/28 09:18:19;;;;;;;13.70;3.05;;;20.40;99.90;;;;;;5049623;28;20078;-78
2023/09/28 09:20:46;;;;;;;15.55;2.67;;;20.50;64.70;;;;;;5048287;28;20134;-78
2023/09/28 09:23:16;;;;;;;13.95;2.78;;;20.40;49.90;;;;;;5034015;28;20093;-78
2023/09/28 09:25:43;;;;;;;11.85;2.42;;;20.30;31.40;;;;;;5040218;28;20585;-78
2023/09/28 09:28:10;;;;;;;11.07;2.55;;;20.30;63.80;;;;;;5030148;28;20086;-78
2023/09/28 09:30:36;;;;;;;9.90;2.35;;;20.50;44.20;;;;;;5038332;28;20498;-78
2023/09/28 09:33:04;;;;;;;16.65;3.17;;;20.60;17.50;;;;;;5023747;28;20044;-78
2023/09/28 09:35:31;;;;;;;12.10;2.63;;;20.50;8.00;;;;;;5041566;28;20120;-78
2023/09/28 09:37:56;;;;;;;12.13;2.58;;;20.50;21.70;;;;;;5021844;28;20589;-78
2023/09/28 09:40:22;;;;;;;9.38;2.47;;;20.50;17.90;;;;;;5044655;28;20036;-78
2023/09/28 09:42:48;;;;;;;13.90;3.15;;;20.50;5.90;;;;;;5026275;28;20434;-78
2023/09/28 09:45:13;;;;;;;9.00;2.50;;;20.50;13.50;;;;;;5030874;28;20033;-78
2023/09/28 09:47:48;;;;;;;12.23;3.47;;;20.50;6.50;;;;;;5044477;28;20048;-78
2023/09/28 09:50:16;;;;;;;12.30;3.80;;;20.50;1.00;;;;;;5029065;28;20037;-78
2023/09/28 09:52:45;;;;;;;10.90;2.05;;;20.50;1.00;;;;;;5045380;28;20381;-78
2023/09/28 09:55:12;;;;;;;14.02;2.83;;;20.50;1.00;;;;;;5028048;28;20029;-79
2023/09/28 09:57:38;;;;;;;13.20;2.47;;;20.60;6.30;;;;;;5040851;28;20124;-79
2023/09/28 10:00:08;;;;;;;13.20;2.55;;;20.70;1.00;;;;;;5038343;28;20056;-78
2023/09/28 10:02:40;;;;;;;10.43;2.80;;;20.80;1.00;;;;;;5036105;28;20041;-78
2023/09/28 10:05:12;;;;;;;16.88;2.80;;;20.80;1.00;;;;;;5028394;28;20079;-78
2023/09/28 10:07:39;;;;;;;12.75;2.15;;;20.90;1.00;;;;;;5038246;28;20049;-78
2023/09/28 10:10:05;;;;;;;13.32;2.83;;;21.10;1.00;;;;;;5036166;28;20048;-78
2023/09/28 10:12:31;;;;;;;11.10;2.30;;;21.30;1.00;;;;;;5041126;28;20045;-78
2023/09/28 10:15:01;;;;;;;12.90;2.95;;;21.40;1.00;;;;;;5060111;28;20041;-78
2023/09/28 10:17:28;;;;;;;12.65;2.58;;;21.50;1.00;;;;;;5037847;28;20515;-78
2023/09/28 10:19:59;;;;;;;15.18;2.28;;;21.40;1.00;;;;;;5042323;28;20107;-78
2023/09/28 10:22:24;;;;;;;9.82;2.05;;;21.40;1.00;;;;;;5018411;28;20048;-78
2023/09/28 10:24:50;;;;;;;12.48;2.22;;;21.50;1.00;;;;;;5026838;28;20507;-78
2023/09/28 10:27:19;;;;;;;13.50;2.45;;;21.60;1.00;;;;;;5028394;28;20037;-78
2023/09/28 10:29:45;;;;;;;13.77;2.47;;;21.40;1.00;;;;;;5021782;28;20407;-78
2023/09/28 10:32:30;;;;;;;15.50;2.47;;;21.30;1.00;;;;;;5021299;28;20041;-79
2023/09/28 10:35:20;;;;;;;10.85;2.15;;;21.20;1.00;;;;;;5038964;28;20044;-78
2023/09/28 10:38:19;;;;;;;14.20;2.20;;;21.10;1.00;;;;;;5036045;28;20116;-79
2023/09/28 10:40:48;;;;;;;12.18;2.08;;;21.00;1.00;;;;;;5033049;28;20040;-80
2023/09/28 10:43:30;;;;;;;9.52;2.08;;;20.80;1.00;;;;;;5046042;28;20534;-79
2023/09/28 10:46:06;;;;;;;14.98;2.75;;;20.80;1.00;;;;;;5014427;28;20052;-79
2023/09/28 10:48:42;;;;;;;14.98;2.30;;;21.00;1.00;;;;;;5041377;28;20040;-79
2023/09/28 10:51:12;;;;;;;12.07;2.42;;;21.20;1.00;;;;;;5045265;28;20123;-79
2023/09/28 10:53:38;;;;;;;8.20;2.10;;;21.40;1.00;;;;;;5039868;28;20048;-79
2023/09/28 10:56:08;;;;;;;13.43;2.92;;;21.30;1.00;;;;;;5040151;28;20068;-79
2023/09/28 10:58:35;;;;;;;10.80;2.55;;;21.10;1.00;;;;;;5035846;28;20110;-80
2023/09/28 11:01:04;;;;;;;12.82;2.30;;;21.10;1.00;;;;;;5056997;28;20190;-79
2023/09/28 11:03:40;;;;;;;8.52;1.95;;;21.10;1.00;;;;;;5037496;28;20102;-79
2023/09/28 11:06:07;;;;;;;14.52;2.30;;;21.00;1.00;;;;;;5027916;28;20163;-79
2023/09/28 11:08:33;;;;;;;9.68;1.92;;;21.00;1.00;;;;;;5057291;28;20045;-79
2023/09/28 11:11:02;;;;;;;11.45;2.75;;;21.10;1.00;;;;;;5050667;28;20152;-79
2023/09/28 11:13:29;;;;;;;12.52;2.03;;;21.10;1.00;;;;;;5044867;28;20041;-79
2023/09/28 11:15:55;;;;;;;12.82;2.70;;;21.30;1.00;;;;;;5035253;28;20048;-79
2023/09/28 11:18:23;;;;;;;16.67;2.83;;;21.40;1.00;;;;;;5042153;28;20029;-79
2023/09/28 11:20:49;;;;;;;8.95;1.92;;;21.50;1.00;;;;;;5026518;28;20739;-79
2023/09/28 11:23:14;;;;;;;10.50;1.83;;;21.50;1.00;;;;;;5038646;28;20660;-80
2023/09/28 11:25:42;;;;;;;13.48;1.70;;;21.70;1.00;;;;;;5039080;28;20082;-79
2023/09/28 11:28:10;;;;;;;11.07;2.05;;;21.50;1.00;;;;;;5039515;28;20041;-79
2023/09/28 11:30:38;;;;;;;9.85;1.80;;;21.50;1.00;;;;;;5053168;28;20072;-80
2023/09/28 11:33:05;;;;;;;14.05;2.88;;;21.40;1.00;;;;;;5038165;28;20037;-79
2023/09/28 11:35:32;;;;;;;9.82;2.33;;;21.30;1.00;;;;;;5036644;28;20136;-79
2023/09/28 11:37:59;;;;;;;17.35;2.78;;;21.10;1.00;;;;;;5052938;28;20041;-79
2023/09/28 11:40:25;;;;;;;12.45;2.17;;;21.10;1.00;;;;;;5024838;28;20041;-80
2023/09/28 11:42:57;;;;;;;15.73;2.15;;;21.20;1.00;;;;;;5037406;28;20447;-79
2023/09/28 11:45:27;;;;;;;12.05;2.67;;;21.20;1.00;;;;;;5035755;28;20045;-79
2023/09/28 11:47:53;;;;;;;11.70;2.45;;;21.30;1.00;;;;;;5030453;28;20052;-79
2023/09/28 11:50:18;;;;;;;14.75;2.70;;;21.30;1.00;;;;;;5047932;28;20052;-79
2023/09/28 11:52:47;;;;;;;9.50;2.05;;;21.40;1.00;;;;;;5038451;28;20045;-79
2023/09/28 11:55:19;;;;;;;12.73;2.28;;;21.50;1.00;;;;;;5044009;28;20029;-78
2023/09/28 11:57:45;;;;;;;14.20;2.28;;;21.70;1.00;;;;;;5014939;28;21018;-79
2023/09/28 12:00:18;;;;;;;14.05;2.10;;;21.70;1.00;;;;;;5029922;28;20038;-79
2023/09/28 12:02:44;;;;;;;12.27;2.08;;;21.70;1.00;;;;;;5029799;28;20049;-78
2023/09/28 12:05:10;;;;;;;13.18;2.67;;;21.40;1.00;;;;;;5024881;28;20040;-78
2023/09/28 12:07:36;;;;;;;10.40;2.15;;;21.30;1.00;;;;;;5029040;28;20583;-79
2023/09/28 12:10:04;;;;;;;15.48;2.55;;;21.20;1.00;;;;;;5032869;28;20511;-79
2023/09/28 12:12:30;;;;;;;12.13;2.40;;;21.10;1.00;;;;;;5042345;28;20052;-79
2023/09/28 12:14:56;;;;;;;11.23;2.75;;;21.00;1.00;;;;;;5025807;28;20052;-79
2023/09/28 12:17:23;;;;;;;14.00;3.35;;;21.10;1.00;;;;;;5029045;28;20517;-78
2023/09/28 12:19:48;;;;;;;13.43;3.20;;;21.00;1.00;;;;;;5032492;28;20515;-80
2023/09/28 12:22:14;;;;;;;14.18;2.20;;;21.20;1.00;;;;;;5047879;28;20068;-80
2023/09/28 12:24:41;;;;;;;10.05;2.15;;;21.30;1.00;;;;;;5046881;28;20075;-79
2023/09/28 12:27:06;;;;;;;13.27;2.33;;;21.50;1.00;;;;;;5048257;28;20045;-79
2023/09/28 12:29:32;;;;;;;10.75;2.08;;;21.50;1.00;;;;;;5029729;28;20120;-79
2023/09/28 12:31:58;;;;;;;10.50;2.00;;;21.50;1.00;;;;;;5031815;28;20041;-79
2023/09/28 12:34:26;;;;;;;11.25;2.38;;;21.40;1.00;;;;;;5041675;28;20052;-80
2023/09/28 12:36:57;;;;;;;11.05;2.25;;;21.20;1.00;;;;;;5032214;28;20130;-78
2023/09/28 12:39:24;;;;;;;15.30;3.05;;;21.20;1.00;;;;;;5044852;28;20049;-79
2023/09/28 12:41:52;;;;;;;11.57;2.08;;;21.20;1.00;;;;;;5030486;28;20410;-79
2023/09/28 12:44:21;;;;;;;12.35;2.55;;;21.20;1.00;;;;;;5040953;28;20499;-79
2023/09/28 12:46:47;;;;;;;9.35;2.75;;;21.30;1.00;;;;;;5029488;28;20432;-80
2023/09/28 12:49:15;;;;;;;14.43;2.10;;;21.20;1.00;;;;;;5026970;28;20045;-80